Airfield :
LOGIN :

Register | Disclaimer

   EN    FR    IT 

 










Legend :    VFR   Marginal VFR   IFR   Intensive IFR   Very Intensive IFR
Visi :
Ceiling :
>= 8 km
>= 3000ft
5 to 8 km
1000 to 3000 ft
1500m to 5 km
500 to 1000 ft
800 to 1500m
200 to 500 ft
< 800m
< 200 ft
Symbols :   Thunderstorms  Fog  Heavy snow  Heavy precipitations  Wind > 20 kt
SIGMETs :     Misc.  Thunderstorms  Icing  Turbulence  Mountain Waves  Volcanic Ashes






- Airport Elevation : 357 ft
- IATA code : TUF


LFOT - Tours

CURRENT METAR :
  • 011500Z AUTO 26007KT 220V300 CAVOK 21/10 Q1014 TEMPO 2500 SHRA BKN030CB

EXPIRED METARs :
  • 011430Z AUTO 26010KT 240V310 CAVOK 21/12 Q1014 TEMPO 2500 SHRA BKN030CB
  • 011400Z AUTO 24010KT 200V280 9999 FEW041 BKN098 22/11 Q1014 TEMPO 4000 -SHRA BKN025TCU
  • 011330Z AUTO 31008KT 280V340 9999 FEW036 OVC094 21/11 Q1014 TEMPO 4000 -SHRA BKN025TCU
  • 011300Z AUTO 29009KT 260V320 9999 FEW036 BKN060 BKN088 20/11 Q1014 TEMPO 4000 -SHRA BKN025TCU
  • 011230Z AUTO 26007KT 230V290 CAVOK 21/11 Q1014 TEMPO 4000 -SHRA BKN025TCU

TAF TAF LFOT
Valid from the 01 at 12:00 until the 02 at 12:00 UTC


011100Z 0112/0212 29008KT 9999 BKN035
TEMPO 0112/0121 4000 -SHRA BKN025TCU
PROB40
TEMPO 0116/0120 2500 SHRA BKN030CB
TEMPO 0203/0206 3000 BR OVC005



MET'MAP, your aeronautical weather chart ! - Copyright ORBIFLY December 2007 - Disclaimer

ORBIFLY MET'MAP TEAM :

Programming & Development : Alexandra Zaïnal
Concept & original design : Baudouin d'Aumeries
Assistance for programming : Marc-Olivier Méhu
Technical & hardware support : Manuel Goepfert

Contact : metmap@orbifly.com




SOURCES & CREDITS :

   NOAA